Time;durP1;ratioP1;P1;durP2;ratioP2;P2;SDS_P1;SDS_P2;PMS_P1;PMS_P2;Temp;Humidity;BMP_temperature;BMP_pressure;BME280_temperature;BME280_humidity;BME280_pressure;Samples;Min_cycle;Max_cycle;Signal;HPM_P1;HPM_P2
2021/12/17 00:00:46;;;;;;;;;;;;;;;6.31;78.98;101183.19;4437956;32;33371;-66
2021/12/17 00:03:32;;;;;;;;;;;;;;;6.94;76.47;101182.34;4437634;32;34832;-65
2021/12/17 00:08:40;;;;;;;;;;;;;;;6.55;77.07;101175.69;4442536;32;34581;-65
2021/12/17 00:11:07;;;;;;;;;;;;;;;6.15;78.00;101177.53;4439102;32;33399;-67
2021/12/17 00:13:34;;;;;;;;;;;;;;;6.36;77.31;101192.19;4428253;32;33687;-66
2021/12/17 00:16:11;;;;;;;;;;;;;;;6.32;77.10;101187.56;4436936;32;35176;-67
2021/12/17 00:18:52;;;;;;;;;;;;;;;6.37;76.47;101183.69;4438914;32;34448;-66
2021/12/17 00:48:46;;;;;;;;;;;;;;;6.03;73.63;101172.25;4448151;32;34084;-65
2021/12/17 00:51:55;;;;;;;;;;;;;;;5.63;74.99;101164.53;4437570;32;35067;-65
2021/12/17 00:54:28;;;;;;;;;;;;;;;5.99;73.75;101181.38;4435563;32;32272;-65
2021/12/17 00:56:57;;;;;;;;;;;;;;;6.18;72.80;101178.69;4418863;32;32381;-65
2021/12/17 00:59:24;;;;;;;;;;;;;;;6.13;72.65;101184.22;4438950;32;33923;-64
2021/12/17 01:01:52;;;;;;;;;;;;;;;5.95;73.05;101181.88;4441437;32;35063;-66
2021/12/17 01:04:20;;;;;;;;;;;;;;;5.87;73.50;101175.13;4440054;32;33451;-65
2021/12/17 01:06:48;;;;;;;;;;;;;;;5.80;73.82;101168.56;4439682;32;34792;-64
2021/12/17 01:09:16;;;;;;;;;;;;;;;5.98;72.31;101158.97;4442190;32;35205;-64
2021/12/17 01:11:44;;;;;;;;;;;;;;;5.93;72.38;101155.09;4443442;32;34455;-66
2021/12/17 01:14:11;;;;;;;;;;;;;;;5.81;72.80;101144.66;4435387;32;33076;-65
2021/12/17 01:16:41;;;;;;;;;;;;;;;5.65;73.33;101152.72;4437575;32;34166;-65
2021/12/17 01:35:28;;;;;;;;;;;;;;;5.46;73.47;101128.78;4448325;32;34330;-64
2021/12/17 01:43:29;;;;;;;;;;;;;;;5.52;72.63;101139.59;4439940;32;33626;-65
2021/12/17 01:45:57;;;;;;;;;;;;;;;5.38;73.09;101150.34;4439300;32;33476;-66
2021/12/17 01:48:32;;;;;;;;;;;;;;;5.89;70.61;101150.44;4430997;32;34211;-65
2021/12/17 01:56:49;;;;;;;;;;;;;;;6.25;69.20;101139.81;4434916;32;33663;-65
2021/12/17 01:59:26;;;;;;;;;;;;;;;6.55;67.02;101119.97;4425296;32;33526;-65
2021/12/17 02:01:59;;;;;;;;;;;;;;;6.07;68.07;101117.72;4446470;27;34269;-88
2021/12/17 02:04:26;;;;;;;;;;;;;;;6.15;67.57;101103.81;4408573;32;34130;-87
2021/12/17 02:06:54;;;;;;;;;;;;;;;6.08;67.61;101111.78;4444406;27;33181;-64
2021/12/17 02:20:28;;;;;;;;;;;;;;;5.81;67.95;101116.38;4433248;32;34531;-65
2021/12/17 02:29:26;;;;;;;;;;;;;;;5.94;66.47;101097.72;4419466;32;34260;-62
2021/12/17 02:31:26;;;;;;;;;;;;;;;5.77;66.79;101100.56;4433934;32;33763;-66
2021/12/17 02:33:54;;;;;;;;;;;;;;;5.35;68.54;101114.09;4453767;32;34771;-64
2021/12/17 02:36:24;;;;;;;;;;;;;;;5.19;69.14;101125.63;4441503;32;34422;-64
2021/12/17 02:38:53;;;;;;;;;;;;;;;5.22;68.81;101133.59;4454518;32;33512;-66
2021/12/17 02:46:58;;;;;;;;;;;;;;;5.46;67.84;101149.34;4455246;32;34461;-64
2021/12/17 02:49:26;;;;;;;;;;;;;;;5.24;68.66;101152.63;4453692;32;33086;-63
2021/12/17 02:51:53;;;;;;;;;;;;;;;5.26;69.01;101155.31;4448022;32;33856;-62
2021/12/17 02:54:20;;;;;;;;;;;;;;;5.57;67.52;101155.44;4445907;32;33842;-63
2021/12/17 02:56:48;;;;;;;;;;;;;;;5.49;68.44;101147.94;4445619;32;34481;-65
2021/12/17 02:59:15;;;;;;;;;;;;;;;5.41;68.64;101140.31;4453108;32;33451;-63
2021/12/17 03:01:44;;;;;;;;;;;;;;;5.83;67.17;101140.56;4454874;32;33429;-62
2021/12/17 03:04:13;;;;;;;;;;;;;;;5.93;67.07;101146.47;4455372;32;35080;-64
2021/12/17 03:06:41;;;;;;;;;;;;;;;5.57;68.39;101137.44;4454978;32;34507;-64
2021/12/17 03:09:08;;;;;;;;;;;;;;;5.49;69.00;101144.47;4439431;32;34369;-62
2021/12/17 03:11:36;;;;;;;;;;;;;;;5.79;67.58;101124.72;4440215;32;34076;-64
2021/12/17 03:14:03;;;;;;;;;;;;;;;5.71;68.23;101131.78;4452789;32;34159;-65
2021/12/17 03:16:37;;;;;;;;;;;;;;;5.58;69.14;101128.94;4456266;32;35041;-62
2021/12/17 03:19:10;;;;;;;;;;;;;;;5.61;69.39;101132.66;4452479;32;33091;-64
2021/12/17 03:24:23;;;;;;;;;;;;;;;6.10;68.74;101111.16;4450626;32;33977;-65
2021/12/17 03:26:51;;;;;;;;;;;;;;;5.88;70.00;101120.38;4453909;32;34514;-62
2021/12/17 03:29:19;;;;;;;;;;;;;;;5.92;70.50;101132.72;4452973;32;33441;-65
2021/12/17 03:31:46;;;;;;;;;;;;;;;5.84;70.81;101138.87;4442284;32;32625;-65
2021/12/17 03:34:18;;;;;;;;;;;;;;;5.61;72.37;101145.53;4452792;32;33989;-62
2021/12/17 03:36:48;;;;;;;;;;;;;;;5.38;73.43;101150.34;4451971;32;34533;-64
2021/12/17 03:39:15;;;;;;;;;;;;;;;5.74;72.39;101151.69;4452385;32;34140;-62
2021/12/17 03:41:49;;;;;;;;;;;;;;;5.26;74.67;101151.09;4439402;32;34628;-62
2021/12/17 03:44:18;;;;;;;;;;;;;;;5.21;75.21;101146.31;4453004;32;34082;-62
2021/12/17 03:46:47;;;;;;;;;;;;;;;5.66;73.73;101143.34;4457809;32;34337;-64
2021/12/17 03:49:15;;;;;;;;;;;;;;;5.88;73.10;101140.94;4450372;32;34267;-64
2021/12/17 03:52:04;;;;;;;;;;;;;;;6.26;71.38;101140.75;4453149;32;34060;-63
2021/12/17 03:54:34;;;;;;;;;;;;;;;5.71;73.28;101137.81;4449879;32;33759;-63
2021/12/17 03:57:04;;;;;;;;;;;;;;;6.28;71.68;101123.75;4456989;32;34522;-62
2021/12/17 03:59:33;;;;;;;;;;;;;;;6.19;71.66;101123.88;4452767;32;32554;-66
2021/12/17 04:02:00;;;;;;;;;;;;;;;5.84;73.00;101128.59;4453732;32;33915;-64
2021/12/17 04:04:28;;;;;;;;;;;;;;;6.09;71.81;101132.50;4439770;32;34729;-66
2021/12/17 04:07:04;;;;;;;;;;;;;;;5.84;72.76;101126.03;4452430;32;34340;-63
2021/12/17 04:09:32;;;;;;;;;;;;;;;5.28;74.87;101134.12;4452597;32;33730;-63
2021/12/17 04:12:01;;;;;;;;;;;;;;;5.81;72.72;101139.50;4439657;32;32543;-63
2021/12/17 04:14:39;;;;;;;;;;;;;;;6.05;71.77;101137.25;4453258;32;34688;-61
2021/12/17 04:17:07;;;;;;;;;;;;;;;5.86;72.34;101137.34;4443239;32;34424;-65
2021/12/17 04:19:34;;;;;;;;;;;;;;;5.19;74.50;101156.44;4460842;32;33418;-63
2021/12/17 04:22:02;;;;;;;;;;;;;;;5.21;74.87;101152.34;4457499;32;34027;-65
2021/12/17 04:24:30;;;;;;;;;;;;;;;5.69;72.79;101156.47;4439696;32;32747;-62
2021/12/17 04:26:57;;;;;;;;;;;;;;;5.38;73.30;101158.06;4439469;32;32499;-62
2021/12/17 04:29:25;;;;;;;;;;;;;;;5.60;72.97;101155.66;4452523;32;34216;-62
2021/12/17 04:31:55;;;;;;;;;;;;;;;5.49;73.21;101155.66;4453547;32;34020;-60
2021/12/17 04:34:23;;;;;;;;;;;;;;;5.82;71.98;101161.00;4454037;32;35013;-66
2021/12/17 04:36:53;;;;;;;;;;;;;;;5.34;73.49;101171.41;4455330;32;34069;-63
2021/12/17 04:39:22;;;;;;;;;;;;;;;5.73;72.34;101171.38;4453378;32;33640;-64
2021/12/17 04:41:55;;;;;;;;;;;;;;;5.36;73.29;101181.06;4455162;32;34957;-66
2021/12/17 04:44:27;;;;;;;;;;;;;;;5.83;71.51;101162.78;4453091;32;34282;-66
2021/12/17 04:57:15;;;;;;;;;;;;;;;5.49;72.79;101160.78;4456341;32;34416;-64
2021/12/17 04:58:05;;;;;;;;;;;;;;;4.84;75.30;101143.97;4445092;32;34611;-64
2021/12/17 05:00:33;;;;;;;;;;;;;;;4.75;76.17;101158.53;4450240;32;34392;-65
2021/12/17 05:03:01;;;;;;;;;;;;;;;5.30;73.58;101153.16;4453434;32;34960;-66
2021/12/17 05:05:30;;;;;;;;;;;;;;;5.02;75.10;101141.22;4451918;32;34776;-63
2021/12/17 05:08:03;;;;;;;;;;;;;;;4.84;75.89;101131.13;4453934;32;35116;-62
2021/12/17 05:18:48;;;;;;;;;;;;;;;4.20;78.85;101115.09;4460396;32;35146;-63
2021/12/17 05:21:15;;;;;;;;;;;;;;;4.51;77.79;101101.69;4453966;32;35021;-63
2021/12/17 05:23:44;;;;;;;;;;;;;;;4.11;79.14;101103.22;4441513;32;34191;-63
2021/12/17 05:26:15;;;;;;;;;;;;;;;4.53;77.78;101091.56;4450208;32;34782;-63
2021/12/17 05:28:49;;;;;;;;;;;;;;;4.08;79.03;101087.56;4452455;32;34535;-63
2021/12/17 05:31:21;;;;;;;;;;;;;;;3.81;80.34;101105.53;4451407;32;33874;-63
2021/12/17 05:33:49;;;;;;;;;;;;;;;4.29;78.35;101091.16;4448982;32;34705;-63
2021/12/17 05:36:17;;;;;;;;;;;;;;;4.28;77.73;101085.91;4440466;32;34217;-63
2021/12/17 05:38:44;;;;;;;;;;;;;;;4.14;78.12;101093.22;4453616;32;35140;-62
2021/12/17 05:41:12;;;;;;;;;;;;;;;4.09;78.47;101091.91;4452270;32;33679;-63
2021/12/17 05:43:43;;;;;;;;;;;;;;;4.14;78.42;101092.34;4441312;32;34906;-63
2021/12/17 05:46:12;;;;;;;;;;;;;;;4.23;78.38;101087.13;4452537;32;34311;-63
2021/12/17 05:48:40;;;;;;;;;;;;;;;4.13;78.31;101086.31;4454817;32;34660;-62
2021/12/17 05:51:08;;;;;;;;;;;;;;;4.52;76.51;101098.37;4451365;32;33590;-62
2021/12/17 05:53:36;;;;;;;;;;;;;;;4.42;77.23;101105.97;4453738;32;34987;-62
2021/12/17 05:56:03;;;;;;;;;;;;;;;4.32;77.04;101106.81;4452595;32;34235;-63
2021/12/17 05:58:35;;;;;;;;;;;;;;;4.58;76.11;101113.41;4452602;32;34194;-63
2021/12/17 06:01:02;;;;;;;;;;;;;;;4.70;75.79;101109.34;4448205;32;34071;-63
2021/12/17 06:03:31;;;;;;;;;;;;;;;4.22;77.53;101116.13;4431257;32;33432;-62
2021/12/17 06:06:00;;;;;;;;;;;;;;;4.35;77.13;101108.78;4449891;32;34113;-62
2021/12/17 06:08:27;;;;;;;;;;;;;;;4.30;76.77;101099.75;4454196;32;34498;-63
2021/12/17 06:10:55;;;;;;;;;;;;;;;4.39;76.61;101098.03;4453377;32;33430;-62
2021/12/17 06:13:22;;;;;;;;;;;;;;;4.37;77.01;101099.56;4454823;32;34357;-62
2021/12/17 06:15:50;;;;;;;;;;;;;;;4.42;76.74;101098.28;4453854;32;34016;-62
2021/12/17 06:18:17;;;;;;;;;;;;;;;4.34;77.28;101127.47;4460774;32;35090;-62
2021/12/17 06:20:45;;;;;;;;;;;;;;;4.10;77.79;101127.06;4453985;32;33793;-63
2021/12/17 06:23:12;;;;;;;;;;;;;;;4.00;78.41;101124.41;4455443;32;34969;-62
2021/12/17 06:25:40;;;;;;;;;;;;;;;4.05;78.37;101130.84;4454245;32;34035;-62
2021/12/17 06:28:07;;;;;;;;;;;;;;;4.04;78.03;101121.37;4434179;32;34132;-62
2021/12/17 06:30:34;;;;;;;;;;;;;;;4.01;78.12;101115.94;4456477;32;32037;-63
2021/12/17 06:33:02;;;;;;;;;;;;;;;4.30;76.86;101104.87;4437272;32;31347;-63
2021/12/17 06:35:30;;;;;;;;;;;;;;;4.22;76.76;101123.81;4452883;32;34117;-62
2021/12/17 06:37:58;;;;;;;;;;;;;;;4.22;76.48;101117.00;4429875;32;34281;-63
2021/12/17 06:40:28;;;;;;;;;;;;;;;3.92;78.33;101141.66;4455103;32;33523;-67
2021/12/17 06:42:55;;;;;;;;;;;;;;;4.32;76.49;101134.12;4447305;32;33891;-65
2021/12/17 06:45:38;;;;;;;;;;;;;;;4.43;75.82;101135.13;4461810;32;34957;-64
2021/12/17 06:48:06;;;;;;;;;;;;;;;3.92;77.72;101156.13;4458251;32;34395;-65
2021/12/17 06:59:07;;;;;;;;;;;;;;;4.61;74.14;101164.09;4442589;32;34296;-62
2021/12/17 07:34:00;;;;;;;;;;;;;;;4.74;73.50;101195.25;4460771;32;34225;-63
2021/12/17 07:36:37;;;;;;;;;;;;;;;5.01;72.62;101208.75;4458157;32;35085;-63
2021/12/17 07:39:05;;;;;;;;;;;;;;;4.94;72.74;101217.56;4454290;32;34143;-63
2021/12/17 07:41:34;;;;;;;;;;;;;;;5.17;71.95;101224.75;4430969;32;34259;-63
2021/12/17 07:44:02;;;;;;;;;;;;;;;4.96;72.31;101215.16;4455049;32;33245;-63
2021/12/17 07:46:32;;;;;;;;;;;;;;;5.12;71.55;101220.91;4454859;32;34046;-63
2021/12/17 07:48:59;;;;;;;;;;;;;;;5.00;72.52;101222.34;4455145;32;33956;-63
2021/12/17 07:51:26;;;;;;;;;;;;;;;5.10;72.01;101225.00;4454925;32;34087;-63
2021/12/17 07:53:54;;;;;;;;;;;;;;;5.41;70.92;101213.19;4454095;32;33543;-63
2021/12/17 07:56:25;;;;;;;;;;;;;;;5.23;71.75;101234.69;4455472;32;34443;-63
2021/12/17 07:58:53;;;;;;;;;;;;;;;5.10;71.40;101241.31;4466141;32;32728;-63
2021/12/17 08:01:21;;;;;;;;;;;;;;;4.94;72.29;101243.25;4463356;32;35221;-63
2021/12/17 08:03:49;;;;;;;;;;;;;;;5.39;70.82;101240.44;4454031;32;34709;-63
2021/12/17 08:06:17;;;;;;;;;;;;;;;5.28;71.37;101231.75;4452311;32;34171;-63
2021/12/17 08:08:46;;;;;;;;;;;;;;;5.96;68.29;101227.41;4440627;32;34787;-62
2021/12/17 08:11:14;;;;;;;;;;;;;;;5.89;68.30;101232.75;4454606;32;34999;-63
2021/12/17 08:13:44;;;;;;;;;;;;;;;5.73;69.12;101235.66;4454962;32;34254;-63
2021/12/17 08:16:34;;;;;;;;;;;;;;;6.28;66.81;101247.28;4441308;32;33986;-62
2021/12/17 08:32:02;;;;;;;;;;;;;;;5.90;68.37;101237.13;4454762;32;34281;-63
2021/12/17 08:34:30;;;;;;;;;;;;;;;6.22;66.69;101241.56;4454616;32;33288;-62
2021/12/17 08:36:57;;;;;;;;;;;;;;;6.10;67.06;101232.06;4454722;32;34135;-63
2021/12/17 08:39:25;;;;;;;;;;;;;;;5.58;69.10;101242.97;4453580;32;33991;-63
2021/12/17 08:41:55;;;;;;;;;;;;;;;6.30;66.80;101250.87;4454154;32;34505;-63
2021/12/17 08:44:23;;;;;;;;;;;;;;;5.94;67.88;101253.72;4454561;32;33644;-62
2021/12/17 08:46:53;;;;;;;;;;;;;;;5.63;68.95;101246.81;4441509;32;34850;-63
2021/12/17 08:49:20;;;;;;;;;;;;;;;5.82;68.78;101233.00;4454417;32;34966;-63
2021/12/17 08:51:51;;;;;;;;;;;;;;;5.62;69.47;101236.38;4440782;32;34537;-62
2021/12/17 08:54:19;;;;;;;;;;;;;;;6.08;67.81;101235.25;4454209;32;34149;-63
2021/12/17 08:56:49;;;;;;;;;;;;;;;5.80;68.25;101237.13;4453892;32;33876;-63
2021/12/17 08:59:17;;;;;;;;;;;;;;;5.77;69.20;101229.13;4454213;32;34016;-63
2021/12/17 09:01:47;;;;;;;;;;;;;;;5.63;69.63;101230.50;4449121;32;35010;-62
2021/12/17 09:04:14;;;;;;;;;;;;;;;5.90;68.38;101243.16;4453921;32;33448;-63
2021/12/17 09:06:43;;;;;;;;;;;;;;;5.91;68.16;101237.25;4453826;32;33507;-63
2021/12/17 09:09:10;;;;;;;;;;;;;;;5.84;68.76;101234.91;4454237;32;34928;-63
2021/12/17 09:11:39;;;;;;;;;;;;;;;6.23;67.24;101231.41;4454138;32;34978;-63
2021/12/17 09:14:07;;;;;;;;;;;;;;;6.01;67.86;101231.28;4453724;32;33473;-63
2021/12/17 09:16:34;;;;;;;;;;;;;;;5.93;68.00;101237.41;4453614;32;34980;-63
2021/12/17 09:19:03;;;;;;;;;;;;;;;5.71;69.09;101227.81;4455852;32;35390;-63
2021/12/17 09:21:31;;;;;;;;;;;;;;;6.24;67.45;101230.66;4455897;32;34014;-63
2021/12/17 09:23:58;;;;;;;;;;;;;;;6.23;67.02;101227.97;4456093;32;33636;-63
2021/12/17 09:26:27;;;;;;;;;;;;;;;5.86;68.43;101219.63;4442162;32;34923;-63
2021/12/17 09:28:55;;;;;;;;;;;;;;;6.18;67.38;101221.50;4456063;32;33994;-63
2021/12/17 09:31:23;;;;;;;;;;;;;;;6.19;66.96;101208.78;4455738;32;34555;-63
2021/12/17 09:33:50;;;;;;;;;;;;;;;6.15;67.17;101206.72;4452514;32;33230;-63
2021/12/17 09:36:18;;;;;;;;;;;;;;;6.17;67.61;101206.84;4455623;32;34739;-63
2021/12/17 09:38:49;;;;;;;;;;;;;;;6.29;66.86;101197.59;4454834;32;34169;-63
2021/12/17 09:41:18;;;;;;;;;;;;;;;5.95;68.41;101202.47;4454000;32;34275;-62
2021/12/17 09:43:46;;;;;;;;;;;;;;;6.19;67.05;101184.72;4449492;32;33400;-63
2021/12/17 09:46:13;;;;;;;;;;;;;;;6.45;66.64;101185.25;4454898;32;34083;-63
2021/12/17 09:48:41;;;;;;;;;;;;;;;6.39;66.39;101188.97;4456100;32;34033;-63
2021/12/17 09:51:11;;;;;;;;;;;;;;;6.56;66.23;101183.53;4441064;32;34638;-63
2021/12/17 09:53:38;;;;;;;;;;;;;;;6.39;66.59;101195.00;4455067;32;34040;-62
2021/12/17 09:56:05;;;;;;;;;;;;;;;6.52;66.17;101198.63;4442287;32;32884;-63
2021/12/17 09:58:33;;;;;;;;;;;;;;;6.67;65.79;101198.22;4439992;32;32219;-63
2021/12/17 10:01:00;;;;;;;;;;;;;;;6.50;65.99;101193.34;4453237;32;34334;-63
2021/12/17 10:03:28;;;;;;;;;;;;;;;6.38;66.47;101203.50;4453172;32;33334;-63
2021/12/17 10:05:55;;;;;;;;;;;;;;;7.05;64.59;101194.38;4452931;32;33897;-63
2021/12/17 10:08:23;;;;;;;;;;;;;;;6.88;64.60;101191.34;4440567;32;34553;-63
2021/12/17 10:10:53;;;;;;;;;;;;;;;7.02;64.05;101187.31;4452022;32;34552;-63
2021/12/17 10:13:21;;;;;;;;;;;;;;;7.36;63.60;101190.03;4453476;32;32777;-63
2021/12/17 10:15:50;;;;;;;;;;;;;;;7.27;62.52;101182.47;4453087;32;34259;-63
2021/12/17 10:18:17;;;;;;;;;;;;;;;6.82;63.95;101188.28;4450939;32;33930;-63
2021/12/17 10:20:47;;;;;;;;;;;;;;;6.90;63.13;101191.47;4452960;32;35165;-63
2021/12/17 10:23:14;;;;;;;;;;;;;;;6.83;63.20;101184.91;4453978;32;33106;-63
2021/12/17 10:25:43;;;;;;;;;;;;;;;6.95;62.84;101178.97;4439464;32;34929;-62
2021/12/17 10:28:10;;;;;;;;;;;;;;;7.01;62.75;101174.31;4453705;32;33713;-63
2021/12/17 10:30:38;;;;;;;;;;;;;;;7.32;62.83;101188.00;4453121;32;34324;-63
2021/12/17 10:33:07;;;;;;;;;;;;;;;7.24;62.78;101187.38;4454962;32;34369;-64
2021/12/17 10:35:43;;;;;;;;;;;;;;;7.37;61.90;101175.47;4453830;32;33229;-63
2021/12/17 10:38:14;;;;;;;;;;;;;;;7.49;61.95;101171.28;4443800;32;34273;-63
2021/12/17 10:41:19;;;;;;;;;;;;;;;7.29;62.43;101168.00;4437012;32;34272;-63
2021/12/17 10:43:45;;;;;;;;;;;;;;;7.19;63.00;101152.59;4446279;32;33494;-64
2021/12/17 10:46:26;;;;;;;;;;;;;;;7.02;62.90;101142.63;4452650;32;34906;-63
2021/12/17 10:49:00;;;;;;;;;;;;;;;6.87;62.62;101125.13;4454297;32;34407;-63
2021/12/17 10:54:09;;;;;;;;;;;;;;;7.16;62.85;101149.78;4454415;32;33697;-63
2021/12/17 10:56:36;;;;;;;;;;;;;;;7.25;61.64;101155.66;4456389;32;34144;-61
2021/12/17 10:59:04;;;;;;;;;;;;;;;7.17;62.13;101141.28;4439639;32;34991;-63
2021/12/17 11:01:32;;;;;;;;;;;;;;;7.12;62.67;101147.72;4442637;32;34436;-63
2021/12/17 11:04:10;;;;;;;;;;;;;;;6.99;62.69;101137.22;4453827;32;33693;-63
2021/12/17 11:06:42;;;;;;;;;;;;;;;7.14;62.02;101146.16;4450912;32;80236;-63
2021/12/17 11:09:09;;;;;;;;;;;;;;;7.16;62.58;101134.31;4450382;32;33992;-63
2021/12/17 11:11:41;;;;;;;;;;;;;;;7.32;61.81;101145.84;4450505;32;34440;-63
2021/12/17 11:14:09;;;;;;;;;;;;;;;7.24;62.92;101143.56;4454338;32;34244;-64
2021/12/17 11:16:37;;;;;;;;;;;;;;;7.32;62.49;101140.69;4453348;32;34669;-63
2021/12/17 11:19:04;;;;;;;;;;;;;;;7.63;60.38;101137.16;4453826;32;33991;-64
2021/12/17 11:21:31;;;;;;;;;;;;;;;7.23;60.60;101127.97;4438966;32;35117;-63
2021/12/17 11:24:00;;;;;;;;;;;;;;;7.16;61.95;101133.41;4454381;32;33359;-64
2021/12/17 11:26:28;;;;;;;;;;;;;;;7.41;61.11;101131.09;4452860;32;34260;-65
2021/12/17 11:29:00;;;;;;;;;;;;;;;7.74;59.99;101137.09;4451062;32;34497;-64
2021/12/17 11:31:28;;;;;;;;;;;;;;;7.48;60.47;101134.28;4454265;32;35018;-63
2021/12/17 11:33:55;;;;;;;;;;;;;;;7.53;61.52;101141.47;4455205;32;33155;-64
2021/12/17 11:36:23;;;;;;;;;;;;;;;7.78;59.73;101149.44;4452699;32;34229;-64
2021/12/17 11:39:10;;;;;;;;;;;;;;;7.74;59.33;101147.41;4454629;32;34735;-64
2021/12/17 11:41:47;;;;;;;;;;;;;;;7.66;59.48;101134.81;4450366;32;34199;-64
2021/12/17 11:44:15;;;;;;;;;;;;;;;7.57;61.66;101140.94;4435367;32;33681;-64
2021/12/17 11:46:43;;;;;;;;;;;;;;;7.57;60.52;101134.12;4451940;32;34213;-64
2021/12/17 11:49:15;;;;;;;;;;;;;;;7.67;60.56;101126.31;4454932;32;34958;-64
2021/12/17 11:51:45;;;;;;;;;;;;;;;7.69;60.43;101129.00;4453369;32;34109;-63
2021/12/17 11:54:16;;;;;;;;;;;;;;;7.63;60.66;101133.66;4439279;32;33961;-64
2021/12/17 11:56:44;;;;;;;;;;;;;;;7.66;60.74;101129.66;4453928;32;34681;-64
2021/12/17 11:59:32;;;;;;;;;;;;;;;7.38;61.32;101141.16;4452498;32;34393;-64
2021/12/17 12:02:11;;;;;;;;;;;;;;;7.65;60.81;101143.34;4452571;32;34525;-65
2021/12/17 12:04:40;;;;;;;;;;;;;;;8.16;58.48;101134.31;4431433;32;32976;-64
2021/12/17 12:07:11;;;;;;;;;;;;;;;7.90;58.51;101140.09;4455462;32;34218;-64
2021/12/17 12:09:58;;;;;;;;;;;;;;;7.71;59.47;101147.16;4454480;32;33891;-64
2021/12/17 12:12:34;;;;;;;;;;;;;;;7.66;58.73;101127.06;4437467;32;34904;-64
2021/12/17 12:15:17;;;;;;;;;;;;;;;7.58;59.27;101140.16;4454289;32;34172;-64
2021/12/17 12:17:57;;;;;;;;;;;;;;;7.39;60.92;101142.97;4451885;32;33682;-63
2021/12/17 12:20:43;;;;;;;;;;;;;;;7.83;58.78;101150.72;4452907;32;34170;-63
2021/12/17 12:23:15;;;;;;;;;;;;;;;7.54;59.20;101158.75;4444089;32;34167;-64
2021/12/17 12:25:43;;;;;;;;;;;;;;;7.77;58.97;101150.25;4454521;32;33616;-64
2021/12/17 12:28:10;;;;;;;;;;;;;;;7.85;58.94;101152.59;4454061;32;33974;-63
2021/12/17 12:30:38;;;;;;;;;;;;;;;7.83;58.65;101150.72;4439636;32;34099;-64
2021/12/17 12:33:06;;;;;;;;;;;;;;;7.96;57.61;101144.78;4452971;32;34569;-63
2021/12/17 12:35:34;;;;;;;;;;;;;;;7.78;58.16;101144.28;4452820;32;33217;-63
2021/12/17 12:38:15;;;;;;;;;;;;;;;7.79;58.31;101136.66;4454420;32;34942;-63
2021/12/17 12:40:50;;;;;;;;;;;;;;;7.71;58.75;101132.59;4453151;32;34008;-64
2021/12/17 12:43:24;;;;;;;;;;;;;;;7.67;59.77;101136.62;4440107;32;34418;-64
2021/12/17 12:45:51;;;;;;;;;;;;;;;7.81;58.94;101144.53;4451865;32;33740;-64
2021/12/17 12:48:29;;;;;;;;;;;;;;;7.97;58.81;101132.00;4450870;32;34639;-64
2021/12/17 12:51:16;;;;;;;;;;;;;;;7.56;59.26;101137.47;4442256;32;34171;-63
2021/12/17 12:54:02;;;;;;;;;;;;;;;8.01;58.33;101144.38;4456435;32;34382;-63
2021/12/17 12:56:29;;;;;;;;;;;;;;;7.95;58.47;101136.16;4456206;32;33693;-64
2021/12/17 12:58:56;;;;;;;;;;;;;;;8.32;56.37;101126.03;4456101;32;34189;-63
2021/12/17 13:01:24;;;;;;;;;;;;;;;8.10;57.88;101132.97;4456086;32;34160;-63
2021/12/17 13:03:53;;;;;;;;;;;;;;;8.28;57.39;101144.66;4456073;32;34289;-64
2021/12/17 13:06:22;;;;;;;;;;;;;;;7.78;58.51;101136.53;4456023;32;33738;-63
2021/12/17 13:08:53;;;;;;;;;;;;;;;7.69;59.01;101134.16;4456172;32;33893;-63
2021/12/17 13:11:21;;;;;;;;;;;;;;;7.67;59.34;101141.78;4455916;32;34947;-64
2021/12/17 13:13:53;;;;;;;;;;;;;;;7.70;59.78;101145.37;4456545;32;34366;-63
2021/12/17 13:17:18;;;;;;;;;;;;;;;8.03;59.06;101153.13;4455872;32;33336;-63
2021/12/17 13:22:03;;;;;;;;;;;;;;;7.97;59.24;101146.59;4456086;32;34215;-63
2021/12/17 13:24:32;;;;;;;;;;;;;;;8.35;57.19;101138.28;4455968;32;34444;-63
2021/12/17 13:27:03;;;;;;;;;;;;;;;8.42;57.17;101136.31;4455989;32;33750;-63
2021/12/17 13:29:34;;;;;;;;;;;;;;;8.10;57.98;101130.38;4455990;32;35055;-63
2021/12/17 13:32:04;;;;;;;;;;;;;;;8.12;58.12;101136.56;4441831;32;34042;-63
2021/12/17 13:34:52;;;;;;;;;;;;;;;7.43;59.72;101126.97;4455927;32;33371;-63
2021/12/17 13:37:21;;;;;;;;;;;;;;;7.51;59.46;101132.72;4455871;32;33524;-63
2021/12/17 13:39:48;;;;;;;;;;;;;;;7.58;59.34;101137.59;4454256;32;33775;-63
2021/12/17 13:42:25;;;;;;;;;;;;;;;7.45;59.77;101148.59;4442442;32;34226;-63
2021/12/17 13:44:56;;;;;;;;;;;;;;;7.11;60.55;101135.63;4443808;32;35091;-63
2021/12/17 13:47:25;;;;;;;;;;;;;;;7.01;61.30;101138.22;4455680;32;33606;-63
2021/12/17 13:50:01;;;;;;;;;;;;;;;7.21;60.33;101147.56;4455593;32;34368;-63
2021/12/17 13:52:34;;;;;;;;;;;;;;;7.28;60.41;101144.69;4455300;32;34057;-63
2021/12/17 13:55:03;;;;;;;;;;;;;;;7.14;60.56;101143.59;4455675;32;34465;-63
2021/12/17 13:57:31;;;;;;;;;;;;;;;7.39;59.51;101158.44;4455974;32;33267;-63
2021/12/17 14:00:05;;;;;;;;;;;;;;;6.74;61.29;101145.56;4455836;32;34215;-63
2021/12/17 14:02:38;;;;;;;;;;;;;;;7.17;59.93;101155.84;4453462;32;34497;-63
2021/12/17 14:05:11;;;;;;;;;;;;;;;6.98;60.96;101167.25;4444728;32;34218;-64
2021/12/17 14:07:38;;;;;;;;;;;;;;;7.16;60.13;101164.34;4453812;32;33620;-63
2021/12/17 14:10:14;;;;;;;;;;;;;;;7.18;60.10;101171.41;4453926;32;34058;-64
2021/12/17 14:12:42;;;;;;;;;;;;;;;6.91;60.86;101174.34;4452496;32;33047;-63
2021/12/17 14:15:33;;;;;;;;;;;;;;;7.07;60.28;101173.13;4454685;32;35010;-63
2021/12/17 14:18:01;;;;;;;;;;;;;;;6.67;61.33;101163.84;4455940;32;34181;-63
2021/12/17 14:20:30;;;;;;;;;;;;;;;7.64;58.68;101157.00;4455219;32;34273;-63
2021/12/17 14:23:03;;;;;;;;;;;;;;;6.43;62.21;101163.63;4437855;32;34771;-63
2021/12/17 14:25:33;;;;;;;;;;;;;;;6.57;61.90;101161.31;4445979;32;35233;-63
2021/12/17 14:28:03;;;;;;;;;;;;;;;6.65;61.61;101148.25;4454872;32;34200;-64
2021/12/17 14:30:34;;;;;;;;;;;;;;;6.67;61.65;101150.97;4454593;32;34990;-63
2021/12/17 14:33:21;;;;;;;;;;;;;;;6.69;61.12;101146.84;4441700;32;35071;-64
2021/12/17 14:35:57;;;;;;;;;;;;;;;6.06;63.17;101142.50;4454514;32;34471;-64
2021/12/17 14:39:06;;;;;;;;;;;;;;;6.99;61.10;101144.94;4453802;32;33679;-64
2021/12/17 14:41:48;;;;;;;;;;;;;;;6.58;61.85;101152.78;4387946;32;34203;-64
2021/12/17 14:44:32;;;;;;;;;;;;;;;5.95;64.03;101143.31;4384294;32;34717;-64
2021/12/17 14:47:07;;;;;;;;;;;;;;;6.04;63.55;101146.63;4426094;32;35119;-63
2021/12/17 14:59:18;;;;;;;;;;;;;;;6.14;63.91;101144.84;4454497;32;34145;-64
2021/12/17 15:00:52;;;;;;;;;;;;;;;5.95;64.55;101148.44;4453669;32;32870;-64
2021/12/17 15:05:56;;;;;;;;;;;;;;;5.94;64.07;101141.47;4440887;32;32469;-63
2021/12/17 15:08:23;;;;;;;;;;;;;;;6.23;63.20;101140.47;4448969;32;34212;-64
2021/12/17 15:10:51;;;;;;;;;;;;;;;5.63;65.69;101136.28;4433229;32;33493;-64
2021/12/17 15:13:19;;;;;;;;;;;;;;;5.84;64.82;101128.59;4448655;32;35000;-63
2021/12/17 15:15:46;;;;;;;;;;;;;;;5.61;65.04;101129.22;4433927;32;35102;-64
2021/12/17 15:18:15;;;;;;;;;;;;;;;5.93;64.37;101126.81;4448842;32;34157;-63
2021/12/17 15:20:43;;;;;;;;;;;;;;;5.80;64.91;101126.53;4447871;32;31773;-64
2021/12/17 15:23:11;;;;;;;;;;;;;;;5.56;65.28;101127.91;4432455;32;33092;-66
2021/12/17 15:25:39;;;;;;;;;;;;;;;5.88;64.41;101131.56;4444055;32;34691;-62
2021/12/17 15:28:07;;;;;;;;;;;;;;;5.69;65.21;101128.19;4436814;32;34421;-66
2021/12/17 15:30:36;;;;;;;;;;;;;;;6.08;63.75;101135.84;4418899;32;32913;-63
2021/12/17 15:33:04;;;;;;;;;;;;;;;5.15;66.62;101136.38;4436179;32;32434;-66
2021/12/17 15:35:31;;;;;;;;;;;;;;;5.30;66.27;101124.87;4433479;32;33425;-66
2021/12/17 15:37:59;;;;;;;;;;;;;;;5.26;66.31;101135.66;4435299;32;34870;-63
2021/12/17 15:40:30;;;;;;;;;;;;;;;5.26;66.70;101139.91;4434684;32;32920;-64
2021/12/17 15:43:02;;;;;;;;;;;;;;;5.09;67.00;101133.28;4436368;32;34205;-63
2021/12/17 15:45:33;;;;;;;;;;;;;;;5.06;67.39;101140.72;4434798;32;32363;-64
2021/12/17 15:48:02;;;;;;;;;;;;;;;5.66;65.26;101133.97;4433709;32;34011;-65
2021/12/17 15:50:49;;;;;;;;;;;;;;;5.46;65.70;101139.06;4435162;32;31624;-64
2021/12/17 15:53:17;;;;;;;;;;;;;;;5.20;66.55;101130.00;4435791;32;33435;-65
2021/12/17 15:55:44;;;;;;;;;;;;;;;5.36;66.08;101128.75;4421065;32;32383;-65